Portada
METAR-TAF:

METAR-TAF

Aeroports :

Luang Namtha, Laos

latitud: 20-57-38N, longitud: 101-24-09E, altitud: 600 m

Observació

L'informe es va fer fa 56 minuts, a les 03:00 UTC
Vent 2 kt del Est
Temperatura 26°C
Humitat 89%
Pressió 1007 hPa
Visibilitat: 7000 m
Núvols disperses a una alçada de 1700 ft
Cel cobert a una alçada de 10000 ft

METAR: VLLN 180300Z 09002KT 7000 SCT017 OVC100 26/24 Q1007 NOSIG RMK RERA

Hora: 09:26 (03:56 UTC)

Pronòstic

L'informe es va fer fa 4 hores i 56 minuts, a les 23:00 UTC
Pronòstic vàlid del 18 a les 00 UTC al 18 a les 24 UTC
Vent 4 kt del Oest/Nord-Oest
Visibilitat: 5000 m
Núvols disperses a una alçada de 1000 ft
Núvols disperses a una alçada de 4000 ft
Cel ennuvolat a una alçada de 9000 ft
pluja
Temporalment
entre 14 i 80 UTC
Visibilitat: 8000 m
Núvols disperses a una alçada de 1700 ft
Cel ennuvolat a una alçada de 9000 ft

TAF: VLLN 172300Z 1800/1824 30004KT 5000 RA SCT010 SCT040 BKN090 TEMPO 14806/1811 8000 SCT017 BKN090

Observacions i pronòstics meteorològics de més de 4000 aeroports (METAR i TAF).

Les estacions disponibles són els punts grocs i vermells al mapa.

Posi el ratolí al punt desitjat per veure el nom de l'estació.

Feu clic per veure les observacions i els pronòstics meteorològics.

Per canviar el mapa: feu clic els botons verds amb una creu de color negre per apropar; al botó verd amb un guió per allunyar la imatge; o en les fletxes verdes per a mapes adjacents.


METAR-TAF: